createdAt,value
2018-06-09T00:01:48.974Z,9.33
2018-06-09T00:04:18.717Z,8.93
2018-06-09T00:06:49.666Z,9.30
2018-06-09T00:09:19.965Z,8.80
2018-06-09T00:11:50.722Z,8.65
2018-06-09T00:14:21.333Z,9.00
2018-06-09T00:16:51.937Z,9.08
2018-06-09T00:19:23.021Z,9.28
2018-06-09T00:21:53.574Z,8.10
2018-06-09T00:24:23.961Z,8.20
2018-06-09T00:26:56.026Z,8.50
2018-06-09T00:29:27.876Z,7.87
2018-06-09T00:31:57.837Z,7.78
2018-06-09T00:34:27.807Z,7.95
2018-06-09T00:37:00.146Z,8.55
2018-06-09T00:39:30.164Z,8.28
2018-06-09T00:42:00.972Z,8.98
2018-06-09T00:44:31.753Z,7.95
2018-06-09T00:47:01.142Z,7.58
2018-06-09T00:49:30.898Z,7.95
2018-06-09T00:52:01.236Z,7.65
2018-06-09T00:54:32.461Z,7.55
2018-06-09T00:57:02.606Z,7.85
2018-06-09T00:59:33.745Z,7.37
2018-06-09T01:02:05.015Z,7.25
2018-06-09T01:04:36.096Z,7.75
2018-06-09T01:07:06.386Z,7.70
2018-06-09T01:09:37.873Z,7.90
2018-06-09T01:12:07.799Z,6.90
2018-06-09T01:14:37.594Z,7.67
2018-06-09T01:17:09.126Z,7.53
2018-06-09T01:19:39.375Z,7.00
2018-06-09T01:22:12.311Z,7.35
2018-06-09T01:24:42.776Z,7.30
2018-06-09T01:27:12.983Z,7.62
2018-06-09T01:29:49.192Z,7.28
2018-06-09T01:32:19.767Z,8.13
2018-06-09T01:34:49.500Z,8.58
2018-06-09T01:37:20.284Z,8.55
2018-06-09T01:39:50.805Z,8.40
2018-06-09T01:42:21.317Z,8.10
2018-06-09T01:44:52.220Z,8.68
2018-06-09T01:47:22.161Z,8.25
2018-06-09T01:49:53.266Z,7.92
2018-06-09T01:52:23.331Z,8.05
2018-06-09T01:54:53.942Z,8.33
2018-06-09T01:57:24.040Z,8.08
2018-06-09T01:59:54.213Z,7.47
2018-06-09T02:02:25.382Z,7.08
2018-06-09T02:04:56.193Z,7.53
2018-06-09T02:07:27.166Z,7.75
2018-06-09T02:09:58.329Z,7.15
2018-06-09T02:12:28.282Z,7.22
2018-06-09T02:14:58.351Z,8.05
2018-06-09T02:17:28.577Z,7.20
2018-06-09T02:19:58.637Z,7.22
2018-06-09T02:22:28.586Z,7.53
2018-06-09T02:24:59.473Z,7.20
2018-06-09T02:27:29.182Z,7.55
2018-06-09T02:29:58.873Z,7.40
2018-06-09T02:32:29.420Z,7.30
2018-06-09T02:34:59.116Z,7.35
2018-06-09T02:37:29.187Z,7.78
2018-06-09T02:39:58.884Z,8.10
2018-06-09T02:42:30.178Z,8.40
2018-06-09T02:44:59.938Z,8.68
2018-06-09T02:47:29.802Z,8.20
2018-06-09T02:49:59.487Z,8.40
2018-06-09T02:52:29.594Z,8.15
2018-06-09T02:54:59.997Z,9.00
2018-06-09T02:57:30.431Z,8.78
2018-06-09T03:00:00.130Z,8.70
2018-06-09T03:02:31.004Z,8.85
2018-06-09T03:05:00.705Z,8.95
2018-06-09T03:07:30.440Z,8.98
2018-06-09T03:10:00.134Z,9.05
2018-06-09T03:12:30.538Z,9.05
2018-06-09T03:15:00.889Z,8.65
2018-06-09T03:17:30.618Z,8.75
2018-06-09T03:20:00.560Z,9.08
2018-06-09T03:22:30.299Z,9.25
2018-06-09T03:25:00.137Z,8.90
2018-06-09T03:27:30.551Z,9.15
2018-06-09T03:30:01.897Z,9.23
2018-06-09T03:32:31.820Z,9.08
2018-06-09T03:35:01.550Z,9.53
2018-06-09T03:37:32.972Z,9.00
2018-06-09T03:40:02.996Z,9.25
2018-06-09T03:42:33.107Z,8.55
2018-06-09T03:45:03.201Z,8.63
2018-06-09T03:47:34.585Z,8.98
2018-06-09T03:50:05.229Z,9.20
2018-06-09T03:52:35.013Z,8.75
2018-06-09T03:55:06.452Z,7.92
2018-06-09T03:57:36.873Z,8.60
2018-06-09T04:00:08.077Z,8.30
2018-06-09T04:02:37.718Z,8.95
2018-06-09T04:05:08.775Z,8.78
2018-06-09T04:07:38.773Z,9.13
2018-06-09T04:10:08.623Z,8.60
2018-06-09T04:12:38.373Z,8.60
2018-06-09T04:15:08.080Z,8.67
2018-06-09T04:17:38.885Z,9.30
2018-06-09T04:20:09.335Z,8.75
2018-06-09T04:22:39.625Z,8.88
2018-06-09T04:25:10.684Z,9.25
2018-06-09T04:27:41.845Z,8.95
2018-06-09T04:30:11.805Z,8.98
2018-06-09T04:32:41.584Z,8.80
2018-06-09T04:35:11.838Z,9.00
2018-06-09T04:37:41.193Z,8.70
2018-06-09T04:40:09.826Z,8.95
2018-06-09T04:43:43.707Z,8.50
2018-06-09T04:46:14.379Z,9.10
2018-06-09T04:48:44.343Z,9.38
2018-06-09T04:51:15.662Z,8.83
2018-06-09T04:53:46.166Z,9.18
2018-06-09T04:56:16.746Z,9.00
2018-06-09T04:58:48.051Z,9.33
2018-06-09T05:01:18.225Z,8.83
2018-06-09T05:03:48.436Z,8.80
2018-06-09T05:06:18.205Z,8.28
2018-06-09T05:08:48.857Z,8.43
2018-06-09T05:11:19.626Z,8.33
2018-06-09T05:13:49.431Z,8.25
2018-06-09T05:16:19.448Z,8.55
2018-06-09T05:18:50.147Z,7.58
2018-06-09T05:21:20.846Z,7.85
2018-06-09T05:23:50.724Z,7.67
2018-06-09T05:26:20.457Z,7.95
2018-06-09T05:28:50.969Z,8.03
2018-06-09T05:31:20.926Z,8.33
2018-06-09T05:33:51.365Z,7.95
2018-06-09T05:36:21.420Z,8.20
2018-06-09T05:38:51.067Z,7.70
2018-06-09T05:41:21.699Z,7.37
2018-06-09T05:43:51.884Z,7.58
2018-06-09T05:46:22.142Z,6.97
2018-06-09T05:48:53.113Z,7.50
2018-06-09T05:51:23.073Z,6.85
2018-06-09T05:53:53.316Z,6.67
2018-06-09T05:56:23.543Z,7.45
2018-06-09T05:58:54.977Z,7.03
2018-06-09T06:01:24.930Z,7.22
2018-06-09T06:03:55.462Z,7.22
2018-06-09T06:06:27.200Z,7.08
2018-06-09T06:08:58.360Z,7.37
2018-06-09T06:11:28.118Z,7.00
2018-06-09T06:13:59.860Z,7.80
2018-06-09T06:16:31.094Z,7.15
2018-06-09T06:19:01.555Z,6.72
2018-06-09T06:21:32.005Z,6.67
2018-06-09T06:24:01.665Z,6.20
2018-06-09T06:26:31.646Z,7.05
2018-06-09T06:29:01.421Z,6.75
2018-06-09T06:31:31.297Z,6.90
2018-06-09T06:34:01.082Z,7.30
2018-06-09T06:36:31.654Z,6.85
2018-06-09T06:39:01.580Z,6.95
2018-06-09T06:41:31.278Z,7.03
2018-06-09T06:44:00.999Z,6.87
2018-06-09T06:46:31.641Z,6.80
2018-06-09T06:49:03.417Z,6.67
2018-06-09T06:51:33.512Z,6.30
2018-06-09T06:54:03.698Z,6.55
2018-06-09T06:56:33.402Z,5.92
2018-06-09T06:59:03.053Z,6.08
2018-06-09T07:01:32.677Z,5.85
2018-06-09T07:04:02.310Z,6.42
2018-06-09T07:06:32.269Z,6.17
2018-06-09T07:09:02.194Z,6.50
2018-06-09T07:11:33.054Z,6.50
2018-06-09T07:20:50.998Z,5.45
2018-06-09T07:23:20.598Z,5.47
2018-06-09T07:25:50.449Z,5.60
2018-06-09T07:28:20.175Z,5.80
2018-06-09T07:30:49.856Z,5.65
2018-06-09T07:33:19.441Z,6.08
2018-06-09T07:35:49.145Z,5.85
2018-06-09T07:38:19.031Z,5.90
2018-06-09T07:40:49.086Z,6.10
2018-06-09T07:43:19.187Z,5.90
2018-06-09T07:45:50.204Z,5.20
2018-06-09T07:48:20.737Z,5.00
2018-06-09T07:50:50.836Z,4.78
2018-06-09T07:53:21.388Z,5.12
2018-06-09T07:55:52.335Z,4.55
2018-06-09T07:58:22.349Z,4.50
2018-06-09T08:00:53.048Z,4.50
2018-06-09T08:03:22.666Z,4.72
2018-06-09T08:05:52.528Z,4.37
2018-06-09T08:08:22.143Z,4.50
2018-06-09T08:10:52.160Z,4.03
2018-06-09T08:13:22.315Z,4.53
2018-06-09T08:15:52.155Z,4.55
2018-06-09T08:18:22.147Z,4.50
2018-06-09T08:20:53.166Z,4.60
2018-06-09T08:23:22.955Z,4.20
2018-06-09T08:25:52.861Z,4.35
2018-06-09T08:28:23.428Z,4.42
2018-06-09T08:30:55.349Z,5.15
2018-06-09T08:33:25.117Z,7.33
2018-06-09T08:35:55.022Z,7.83
2018-06-09T08:38:24.797Z,7.60
2018-06-09T08:40:54.473Z,6.83
2018-06-09T08:43:24.717Z,7.10
2018-06-09T08:45:54.958Z,7.35
2018-06-09T08:48:26.106Z,7.08
2018-06-09T08:50:58.209Z,7.10
2018-06-09T08:53:29.756Z,7.33
2018-06-09T08:56:01.826Z,7.15
2018-06-09T08:58:32.198Z,8.55
2018-06-09T09:01:04.542Z,7.62
2018-06-09T09:03:34.430Z,7.62
2018-06-09T09:06:04.642Z,7.60
2018-06-09T09:08:35.059Z,7.70
2018-06-09T09:11:04.752Z,7.72
2018-06-09T09:13:34.803Z,6.65
2018-06-09T09:16:04.548Z,6.90
2018-06-09T09:18:35.196Z,7.90
2018-06-09T09:21:06.123Z,6.78
2018-06-09T09:23:35.769Z,6.80
2018-06-09T09:26:05.489Z,7.33
2018-06-09T09:28:35.388Z,7.03
2018-06-09T09:31:05.216Z,7.35
2018-06-09T09:33:36.247Z,6.10
2018-06-09T09:36:06.338Z,6.37
2018-06-09T09:38:36.400Z,6.42
2018-06-09T09:41:06.667Z,5.90
2018-06-09T09:43:37.492Z,5.80
2018-06-09T09:46:08.966Z,5.35
2018-06-09T09:48:40.098Z,5.12
2018-06-09T09:51:12.291Z,5.05
2018-06-09T09:53:43.135Z,4.65
2018-06-09T09:56:14.001Z,4.45
2018-06-09T09:58:44.488Z,4.65
2018-06-09T10:01:19.442Z,4.85
2018-06-09T10:03:49.256Z,5.72
2018-06-09T10:06:18.974Z,4.90
2018-06-09T10:08:49.898Z,4.50
2018-06-09T10:11:19.897Z,4.55
2018-06-09T10:13:51.767Z,4.58
2018-06-09T10:16:21.801Z,4.40
2018-06-09T10:18:52.298Z,4.58
2018-06-09T10:21:22.205Z,4.25
2018-06-09T10:23:53.416Z,4.10
2018-06-09T10:26:24.020Z,4.25
2018-06-09T10:28:54.682Z,4.40
2018-06-09T10:31:25.148Z,4.55
2018-06-09T10:33:55.205Z,4.62
2018-06-09T10:36:25.095Z,4.42
2018-06-09T10:38:55.264Z,4.17
2018-06-09T10:41:24.987Z,4.70
2018-06-09T10:43:54.853Z,4.20
2018-06-09T10:46:25.178Z,4.15
2018-06-09T10:48:54.947Z,4.58
2018-06-09T10:51:24.982Z,4.58
2018-06-09T10:53:54.962Z,4.60
2018-06-09T10:56:25.674Z,4.72
2018-06-09T10:58:55.667Z,4.45
2018-06-09T11:01:25.659Z,4.62
2018-06-09T11:03:56.702Z,4.70
2018-06-09T11:06:26.428Z,4.37
2018-06-09T11:08:56.194Z,4.40
2018-06-09T11:11:25.919Z,4.47
2018-06-09T11:13:57.769Z,4.28
2018-06-09T11:16:28.321Z,4.30
2018-06-09T11:19:03.492Z,4.10
2018-06-09T11:21:34.533Z,4.50
2018-06-09T11:24:04.956Z,4.08
2018-06-09T11:26:34.622Z,4.37
2018-06-09T11:29:05.441Z,4.67
2018-06-09T11:31:35.238Z,4.85
2018-06-09T11:34:05.280Z,4.45
2018-06-09T11:36:35.264Z,4.20
2018-06-09T11:39:08.109Z,4.50
2018-06-09T11:41:38.576Z,4.53
2018-06-09T11:44:08.578Z,4.60
2018-06-09T11:46:38.862Z,4.72
2018-06-09T11:53:46.407Z,4.47
2018-06-09T11:56:17.220Z,4.55
2018-06-09T11:58:46.948Z,4.95
2018-06-09T12:01:16.729Z,4.95
2018-06-09T12:03:46.550Z,4.40
2018-06-09T12:06:16.302Z,4.90
2018-06-09T12:08:46.461Z,4.72
2018-06-09T12:11:16.220Z,4.92
2018-06-09T12:13:45.941Z,4.62
2018-06-09T12:16:15.543Z,5.55
2018-06-09T12:18:46.270Z,5.05
2018-06-09T12:21:16.621Z,5.10
2018-06-09T12:23:46.305Z,5.67
2018-06-09T12:26:16.177Z,4.97
2018-06-09T12:28:47.416Z,5.30
2018-06-09T12:31:17.343Z,5.60
2018-06-09T12:33:47.613Z,5.12
2018-06-09T12:36:17.455Z,4.95
2018-06-09T12:38:47.136Z,5.80
2018-06-09T12:41:16.841Z,5.72
2018-06-09T12:43:47.538Z,5.62
2018-06-09T12:46:17.223Z,5.47
2018-06-09T12:48:46.948Z,5.85
2018-06-09T12:51:16.639Z,5.67
2018-06-09T12:53:46.496Z,5.28
2018-06-09T12:56:16.749Z,5.53
2018-06-09T12:58:47.516Z,5.70
2018-06-09T13:01:18.341Z,5.58
2018-06-09T13:03:49.529Z,5.17
2018-06-09T13:06:19.505Z,5.97
2018-06-09T13:08:49.423Z,5.35
2018-06-09T13:11:19.272Z,5.62
2018-06-09T13:13:50.027Z,5.65
2018-06-09T13:16:19.905Z,5.33
2018-06-09T13:18:52.515Z,5.53
2018-06-09T13:21:24.042Z,5.53
2018-06-09T13:23:56.472Z,5.95
2018-06-09T13:26:31.144Z,5.40
2018-06-09T13:29:00.835Z,5.55
2018-06-09T13:31:31.430Z,5.37
2018-06-09T13:34:02.058Z,4.90
2018-06-09T13:36:32.835Z,4.70
2018-06-09T13:39:03.262Z,5.37
2018-06-09T13:41:34.727Z,5.62
2018-06-09T13:44:04.869Z,5.22
2018-06-09T13:46:35.034Z,5.65
2018-06-09T13:49:05.996Z,5.30
2018-06-09T13:51:36.861Z,5.25
2018-06-09T13:54:07.152Z,5.75
2018-06-09T13:56:38.438Z,5.22
2018-06-09T13:59:11.155Z,5.50
2018-06-09T14:01:41.904Z,5.35
2018-06-09T14:04:13.740Z,5.00
2018-06-09T14:06:44.061Z,5.53
2018-06-09T14:09:13.631Z,5.30
2018-06-09T14:11:43.383Z,5.95
2018-06-09T14:14:14.905Z,5.83
2018-06-09T14:16:45.491Z,5.45
2018-06-09T14:19:16.157Z,6.05
2018-06-09T14:21:46.395Z,5.30
2018-06-09T14:24:16.260Z,5.33
2018-06-09T14:26:47.459Z,5.05
2018-06-09T14:29:17.579Z,5.00
2018-06-09T14:31:50.207Z,5.90
2018-06-09T14:34:20.330Z,5.83
2018-06-09T14:36:50.691Z,5.25
2018-06-09T14:39:22.082Z,5.22
2018-06-09T14:41:56.191Z,5.50
2018-06-09T14:44:27.206Z,5.37
2018-06-09T14:46:56.880Z,5.50
2018-06-09T14:49:26.964Z,5.20
2018-06-09T14:51:57.645Z,5.17
2018-06-09T14:54:28.364Z,5.47
2018-06-09T14:56:58.272Z,5.70
2018-06-09T14:59:31.548Z,5.92
2018-06-09T15:02:02.390Z,5.10
2018-06-09T15:04:33.034Z,5.40
2018-06-09T15:07:02.663Z,5.40
2018-06-09T15:09:34.155Z,5.55
2018-06-09T15:12:04.003Z,5.37
2018-06-09T15:14:33.752Z,5.40
2018-06-09T15:17:05.603Z,5.95
2018-06-09T15:19:36.243Z,5.35
2018-06-09T15:22:06.534Z,5.12
2018-06-09T15:24:36.215Z,5.70
2018-06-09T15:27:05.799Z,5.60
2018-06-09T15:29:36.062Z,5.87
2018-06-09T15:33:34.816Z,5.67
2018-06-09T15:36:04.528Z,5.58
2018-06-09T15:38:35.287Z,5.53
2018-06-09T15:41:07.668Z,5.67
2018-06-09T15:43:37.384Z,5.53
2018-06-09T15:46:07.459Z,5.72
2018-06-09T15:48:37.885Z,5.60
2018-06-09T15:51:09.224Z,5.95
2018-06-09T15:53:39.244Z,5.35
2018-06-09T15:56:09.368Z,6.20
2018-06-09T15:58:40.545Z,5.50
2018-06-09T16:01:10.269Z,5.50
2018-06-09T16:03:40.114Z,5.60
2018-06-09T16:06:11.206Z,6.03
2018-06-09T16:08:41.808Z,5.35
2018-06-09T16:11:12.695Z,6.00
2018-06-09T16:13:43.845Z,5.70
2018-06-09T16:16:15.303Z,6.08
2018-06-09T16:18:45.112Z,5.92
2018-06-09T16:21:15.397Z,5.83
2018-06-09T16:23:46.095Z,6.28
2018-06-09T16:26:15.787Z,7.40
2018-06-09T16:28:45.679Z,6.70
2018-06-09T16:31:16.350Z,7.40
2018-06-09T16:33:49.454Z,7.05
2018-06-09T16:36:19.510Z,7.35
2018-06-09T16:38:50.722Z,7.28
2018-06-09T16:41:20.375Z,7.83
2018-06-09T16:43:50.090Z,7.45
2018-06-09T16:46:19.843Z,7.87
2018-06-09T16:48:51.526Z,8.38
2018-06-09T16:51:22.051Z,8.50
2018-06-09T16:53:51.931Z,7.85
2018-06-09T16:56:23.757Z,7.53
2018-06-09T16:58:53.475Z,7.45
2018-06-09T17:01:24.781Z,7.30
2018-06-09T17:03:54.485Z,6.35
2018-06-09T17:06:25.735Z,6.58
2018-06-09T17:08:55.457Z,6.80
2018-06-09T17:11:26.488Z,6.67
2018-06-09T17:14:01.606Z,6.30
2018-06-09T17:16:33.448Z,6.45
2018-06-09T17:19:04.044Z,6.35
2018-06-09T17:21:34.759Z,6.28
2018-06-09T17:24:05.217Z,5.92
2018-06-09T17:26:34.849Z,5.60
2018-06-09T17:29:05.311Z,5.95
2018-06-09T17:31:37.636Z,5.58
2018-06-09T17:34:10.010Z,5.60
2018-06-09T17:36:39.844Z,5.55
2018-06-09T17:39:10.072Z,5.70
2018-06-09T17:41:41.605Z,5.45
2018-06-09T17:44:11.842Z,5.53
2018-06-09T17:46:43.187Z,5.10
2018-06-09T17:49:13.998Z,5.62
2018-06-09T17:51:44.312Z,5.85
2018-06-09T17:54:14.309Z,5.58
2018-06-09T17:56:44.393Z,5.75
2018-06-09T17:59:14.276Z,5.87
2018-06-09T18:01:44.033Z,5.72
2018-06-09T18:04:14.649Z,6.42
2018-06-09T18:06:45.394Z,5.72
2018-06-09T18:09:15.388Z,5.60
2018-06-09T18:11:45.095Z,6.15
2018-06-09T18:14:14.426Z,5.90
2018-06-09T18:16:45.835Z,6.20
2018-06-09T18:19:16.168Z,6.47
2018-06-09T18:21:46.705Z,6.30
2018-06-09T18:24:16.462Z,5.92
2018-06-09T18:26:46.608Z,6.25
2018-06-09T18:29:17.442Z,6.22
2018-06-09T18:31:47.171Z,5.80
2018-06-09T18:34:17.346Z,5.45
2018-06-09T18:36:48.203Z,5.58
2018-06-09T18:39:18.768Z,5.17
2018-06-09T18:41:50.043Z,5.25
2018-06-09T18:44:20.835Z,5.50
2018-06-09T18:46:51.493Z,5.45
2018-06-09T18:49:21.557Z,5.80
2018-06-09T18:51:53.009Z,5.30
2018-06-09T18:54:23.315Z,5.55
2018-06-09T18:56:53.146Z,5.53
2018-06-09T18:59:24.676Z,5.60
2018-06-09T19:01:55.489Z,5.12
2018-06-09T19:04:25.538Z,5.87
2018-06-09T19:06:56.501Z,5.12
2018-06-09T19:09:26.130Z,5.25
2018-06-09T19:11:58.465Z,5.22
2018-06-09T19:14:28.731Z,5.33
2018-06-09T19:17:00.385Z,5.53
2018-06-09T19:19:32.273Z,5.12
2018-06-09T19:22:03.365Z,5.20
2018-06-09T19:24:34.180Z,4.83
2018-06-09T19:27:04.715Z,5.12
2018-06-09T19:29:35.145Z,4.83
2018-06-09T19:32:05.195Z,4.83
2018-06-09T19:34:35.635Z,5.17
2018-06-09T19:37:06.884Z,5.50
2018-06-09T19:39:37.925Z,5.50
2018-06-09T19:42:07.673Z,5.58
2018-06-09T19:44:38.424Z,5.22
2018-06-09T19:47:08.938Z,6.03
2018-06-09T19:49:39.314Z,6.55
2018-06-09T19:52:08.983Z,6.42
2018-06-09T19:54:40.220Z,6.33
2018-06-09T19:57:11.951Z,5.95
2018-06-09T19:59:42.120Z,6.70
2018-06-09T20:02:12.186Z,6.62
2018-06-09T20:04:42.470Z,6.67
2018-06-09T20:07:12.744Z,6.65
2018-06-09T20:09:43.850Z,6.50
2018-06-09T20:12:15.008Z,7.00
2018-06-09T20:14:46.560Z,6.58
2018-06-09T20:17:17.020Z,6.87
2018-06-09T20:19:47.271Z,7.05
2018-06-09T20:22:18.684Z,6.37
2018-06-09T20:24:49.339Z,6.75
2018-06-09T20:27:19.526Z,7.15
2018-06-09T20:29:50.912Z,6.92
2018-06-09T20:32:22.548Z,7.58
2018-06-09T20:34:52.834Z,6.55
2018-06-09T20:37:22.993Z,7.55
2018-06-09T20:39:54.924Z,7.62
2018-06-09T20:42:24.694Z,7.62
2018-06-09T20:44:54.019Z,7.15
2018-06-09T20:47:24.279Z,7.87
2018-06-09T20:49:56.227Z,7.33
2018-06-09T20:52:26.970Z,7.00
2018-06-09T20:54:57.735Z,7.80
2018-06-09T20:57:29.446Z,7.62
2018-06-09T21:00:01.718Z,7.67
2018-06-09T21:02:32.364Z,7.87
2018-06-09T21:05:02.673Z,7.47
2018-06-09T21:07:32.447Z,7.62
2018-06-09T21:10:03.474Z,7.60
2018-06-09T21:12:34.432Z,7.60
2018-06-09T21:15:06.540Z,7.10
2018-06-09T21:17:39.171Z,6.87
2018-06-09T21:20:13.723Z,7.12
2018-06-09T21:22:47.047Z,7.08
2018-06-09T21:25:18.795Z,7.30
2018-06-09T21:27:55.476Z,7.60
2018-06-09T21:30:30.746Z,7.05
2018-06-09T21:33:05.635Z,7.10
2018-06-09T21:35:56.359Z,7.47
2018-06-09T21:38:28.669Z,7.12
2018-06-09T21:41:03.570Z,7.08
2018-06-09T21:43:44.830Z,8.10
2018-06-09T21:46:19.722Z,7.30
2018-06-09T21:48:52.659Z,7.72
2018-06-09T21:51:23.260Z,7.67
2018-06-09T21:53:53.559Z,7.72
2018-06-09T21:56:24.566Z,7.40
2018-06-09T21:58:54.976Z,7.75
2018-06-09T22:01:25.356Z,7.92
2018-06-09T22:03:58.066Z,8.10
2018-06-09T22:06:28.500Z,8.35
2018-06-09T22:08:58.826Z,7.95
2018-06-09T22:11:28.642Z,7.90
2018-06-09T22:14:02.653Z,8.63
2018-06-09T22:16:32.357Z,8.20
2018-06-09T22:19:03.295Z,8.38
2018-06-09T22:21:34.810Z,8.20
2018-06-09T22:24:05.253Z,8.35
2018-06-09T22:26:36.998Z,8.23
2018-06-09T22:29:08.198Z,8.05
2018-06-09T22:31:39.583Z,8.40
2018-06-09T22:34:11.129Z,8.48
2018-06-09T22:36:40.826Z,8.48
2018-06-09T22:39:12.672Z,8.55
2018-06-09T22:41:42.611Z,8.58
2018-06-09T22:44:14.163Z,7.85
2018-06-09T22:46:46.411Z,8.43
2018-06-09T22:49:18.565Z,8.68
2018-06-09T22:51:49.467Z,8.33
2018-06-09T22:54:21.082Z,8.18
2018-06-09T22:56:52.292Z,8.45
2018-06-09T22:59:22.720Z,8.48
2018-06-09T23:01:53.884Z,8.85
2018-06-09T23:04:23.644Z,8.75
2018-06-09T23:06:53.472Z,8.83
2018-06-09T23:09:24.873Z,8.68
2018-06-09T23:11:57.544Z,8.05
2018-06-09T23:14:32.773Z,9.23
2018-06-09T23:17:02.640Z,8.10
2018-06-09T23:19:32.407Z,8.88
2018-06-09T23:22:02.772Z,8.35
2018-06-09T23:24:33.637Z,8.23
2018-06-09T23:27:04.012Z,8.05
2018-06-09T23:29:34.523Z,8.30
2018-06-09T23:32:05.463Z,8.13
2018-06-09T23:34:35.938Z,8.43
2018-06-09T23:37:05.732Z,8.03
2018-06-09T23:39:35.380Z,8.53
2018-06-09T23:42:05.553Z,8.70
2018-06-09T23:44:35.422Z,9.10
2018-06-09T23:47:05.700Z,8.45
2018-06-09T23:49:39.136Z,8.40
2018-06-09T23:52:10.050Z,9.33
2018-06-09T23:54:44.202Z,9.13
2018-06-09T23:57:16.641Z,9.48
2018-06-09T23:59:47.330Z,10.32
